Terminal Aerodrome Forecast
Issued by NWS

Home | Current Version | Previous Version | Text Only | Print | Product List | Glossary On
Versions: 1 2 3 4 5 6 7 8 9 10 11 12 13 14 15 16 17 18 19 20 21 22 23 24 25 26 27 28
002
FTUS45 KRIW 191738
TAFCOD
TAF
KCOD 191738Z 1918/2018 26018G28KT P6SM FEW090 SCT250
     FM200600 23012KT P6SM SCT060 BKN090 WS020/26035KT
     FM201200 20008KT P6SM VCSH BKN060
      AMD LTD TO CLD VIS AND WIND=

USA.gov is the U.S. government's official web portal to all federal, state and local government web resources and services.